sensor_id;sensor_type;location;lat;lon;timestamp;P1;durP1;ratioP1;P2;durP2;ratioP2
3817;SDS011;1924;48.078;11.516;2023-05-10T00:00:54;31.57;;;0.80;;
3817;SDS011;1924;48.078;11.516;2023-05-10T00:03:21;31.40;;;0.80;;
3817;SDS011;1924;48.078;11.516;2023-05-10T00:05:48;31.40;;;0.80;;
3817;SDS011;1924;48.078;11.516;2023-05-10T00:08:15;31.33;;;0.80;;
3817;SDS011;1924;48.078;11.516;2023-05-10T00:10:43;31.53;;;0.80;;
3817;SDS011;1924;48.078;11.516;2023-05-10T00:13:10;31.60;;;0.80;;
3817;SDS011;1924;48.078;11.516;2023-05-10T00:15:37;31.60;;;0.80;;
3817;SDS011;1924;48.078;11.516;2023-05-10T00:18:03;31.50;;;0.80;;
3817;SDS011;1924;48.078;11.516;2023-05-10T00:20:30;31.50;;;0.80;;
3817;SDS011;1924;48.078;11.516;2023-05-10T00:22:57;31.50;;;0.80;;
3817;SDS011;1924;48.078;11.516;2023-05-10T00:25:24;31.43;;;0.80;;
3817;SDS011;1924;48.078;11.516;2023-05-10T00:27:52;31.60;;;0.80;;
3817;SDS011;1924;48.078;11.516;2023-05-10T00:30:20;31.47;;;0.80;;
3817;SDS011;1924;48.078;11.516;2023-05-10T00:32:46;31.60;;;0.80;;
3817;SDS011;1924;48.078;11.516;2023-05-10T00:35:14;31.50;;;0.80;;
3817;SDS011;1924;48.078;11.516;2023-05-10T00:37:41;31.23;;;0.80;;
3817;SDS011;1924;48.078;11.516;2023-05-10T00:40:08;31.33;;;0.80;;
3817;SDS011;1924;48.078;11.516;2023-05-10T00:42:35;31.37;;;0.80;;
3817;SDS011;1924;48.078;11.516;2023-05-10T00:45:04;31.40;;;0.80;;
3817;SDS011;1924;48.078;11.516;2023-05-10T00:47:32;31.50;;;0.80;;
3817;SDS011;1924;48.078;11.516;2023-05-10T00:49:59;31.30;;;0.80;;
3817;SDS011;1924;48.078;11.516;2023-05-10T00:52:26;31.50;;;0.80;;
3817;SDS011;1924;48.078;11.516;2023-05-10T00:54:53;31.30;;;0.80;;
3817;SDS011;1924;48.078;11.516;2023-05-10T00:57:21;31.37;;;0.80;;
3817;SDS011;1924;48.078;11.516;2023-05-10T00:59:47;31.53;;;0.80;;
3817;SDS011;1924;48.078;11.516;2023-05-10T01:02:16;31.30;;;0.80;;
3817;SDS011;1924;48.078;11.516;2023-05-10T01:04:43;31.50;;;0.80;;
3817;SDS011;1924;48.078;11.516;2023-05-10T01:07:09;31.40;;;0.80;;
3817;SDS011;1924;48.078;11.516;2023-05-10T01:09:36;31.60;;;0.80;;
3817;SDS011;1924;48.078;11.516;2023-05-10T01:12:03;31.40;;;0.80;;
3817;SDS011;1924;48.078;11.516;2023-05-10T01:14:31;31.47;;;0.80;;
3817;SDS011;1924;48.078;11.516;2023-05-10T01:16:59;31.40;;;0.80;;
3817;SDS011;1924;48.078;11.516;2023-05-10T01:19:29;31.40;;;0.80;;
3817;SDS011;1924;48.078;11.516;2023-05-10T01:22:02;31.43;;;0.80;;
3817;SDS011;1924;48.078;11.516;2023-05-10T01:24:42;31.40;;;0.80;;
3817;SDS011;1924;48.078;11.516;2023-05-10T01:33:50;31.57;;;0.80;;
3817;SDS011;1924;48.078;11.516;2023-05-10T01:36:23;31.50;;;0.80;;
3817;SDS011;1924;48.078;11.516;2023-05-10T01:38:59;31.50;;;0.80;;
3817;SDS011;1924;48.078;11.516;2023-05-10T01:41:34;31.40;;;0.80;;
3817;SDS011;1924;48.078;11.516;2023-05-10T01:44:08;31.60;;;0.80;;
3817;SDS011;1924;48.078;11.516;2023-05-10T01:46:40;31.50;;;0.80;;
3817;SDS011;1924;48.078;11.516;2023-05-10T01:49:10;31.37;;;0.80;;
3817;SDS011;1924;48.078;11.516;2023-05-10T01:51:44;31.40;;;0.80;;
3817;SDS011;1924;48.078;11.516;2023-05-10T01:54:16;31.57;;;0.80;;
3817;SDS011;1924;48.078;11.516;2023-05-10T01:56:45;31.33;;;0.80;;
3817;SDS011;1924;48.078;11.516;2023-05-10T01:59:16;31.60;;;0.80;;
3817;SDS011;1924;48.078;11.516;2023-05-10T02:01:45;31.57;;;0.80;;
3817;SDS011;1924;48.078;11.516;2023-05-10T02:04:15;31.50;;;0.80;;
3817;SDS011;1924;48.078;11.516;2023-05-10T02:06:44;31.30;;;0.80;;
3817;SDS011;1924;48.078;11.516;2023-05-10T02:09:13;31.50;;;0.80;;
3817;SDS011;1924;48.078;11.516;2023-05-10T02:11:41;31.27;;;0.80;;
3817;SDS011;1924;48.078;11.516;2023-05-10T02:14:10;31.23;;;0.80;;
3817;SDS011;1924;48.078;11.516;2023-05-10T02:16:38;31.60;;;0.80;;
3817;SDS011;1924;48.078;11.516;2023-05-10T02:19:05;31.50;;;0.80;;
3817;SDS011;1924;48.078;11.516;2023-05-10T02:21:36;31.60;;;0.80;;
3817;SDS011;1924;48.078;11.516;2023-05-10T02:24:05;31.37;;;0.80;;
3817;SDS011;1924;48.078;11.516;2023-05-10T02:26:33;31.40;;;0.80;;
3817;SDS011;1924;48.078;11.516;2023-05-10T02:29:02;31.40;;;0.80;;
3817;SDS011;1924;48.078;11.516;2023-05-10T02:31:29;31.40;;;0.80;;
3817;SDS011;1924;48.078;11.516;2023-05-10T02:33:58;31.47;;;0.80;;
3817;SDS011;1924;48.078;11.516;2023-05-10T02:36:25;31.47;;;0.80;;
3817;SDS011;1924;48.078;11.516;2023-05-10T02:38:54;31.57;;;0.80;;
3817;SDS011;1924;48.078;11.516;2023-05-10T02:41:21;31.60;;;0.80;;
3817;SDS011;1924;48.078;11.516;2023-05-10T04:00:25;31.50;;;0.80;;
3817;SDS011;1924;48.078;11.516;2023-05-10T04:02:51;31.33;;;0.80;;
3817;SDS011;1924;48.078;11.516;2023-05-10T04:05:18;31.30;;;0.80;;
3817;SDS011;1924;48.078;11.516;2023-05-10T04:07:45;31.40;;;0.80;;
3817;SDS011;1924;48.078;11.516;2023-05-10T04:10:14;31.40;;;0.80;;
3817;SDS011;1924;48.078;11.516;2023-05-10T04:12:41;31.20;;;0.80;;
3817;SDS011;1924;48.078;11.516;2023-05-10T04:15:08;31.40;;;0.80;;
3817;SDS011;1924;48.078;11.516;2023-05-10T04:17:36;31.40;;;0.80;;
3817;SDS011;1924;48.078;11.516;2023-05-10T04:20:04;31.40;;;0.80;;
3817;SDS011;1924;48.078;11.516;2023-05-10T04:22:31;31.40;;;0.80;;
3817;SDS011;1924;48.078;11.516;2023-05-10T04:24:58;31.20;;;0.80;;
3817;SDS011;1924;48.078;11.516;2023-05-10T04:27:25;31.23;;;0.80;;
3817;SDS011;1924;48.078;11.516;2023-05-10T04:29:52;31.20;;;0.80;;
3817;SDS011;1924;48.078;11.516;2023-05-10T04:32:19;31.27;;;0.80;;
3817;SDS011;1924;48.078;11.516;2023-05-10T04:34:47;31.10;;;0.80;;
3817;SDS011;1924;48.078;11.516;2023-05-10T04:37:14;31.20;;;0.80;;
3817;SDS011;1924;48.078;11.516;2023-05-10T04:39:40;31.40;;;0.80;;
3817;SDS011;1924;48.078;11.516;2023-05-10T04:42:07;31.40;;;0.80;;
3817;SDS011;1924;48.078;11.516;2023-05-10T04:44:34;31.20;;;0.80;;
3817;SDS011;1924;48.078;11.516;2023-05-10T04:47:01;31.20;;;0.80;;
3817;SDS011;1924;48.078;11.516;2023-05-10T04:49:28;31.37;;;0.80;;
3817;SDS011;1924;48.078;11.516;2023-05-10T04:51:56;31.30;;;0.80;;
3817;SDS011;1924;48.078;11.516;2023-05-10T04:54:23;31.20;;;0.80;;
3817;SDS011;1924;48.078;11.516;2023-05-10T04:56:50;31.40;;;0.80;;
3817;SDS011;1924;48.078;11.516;2023-05-10T04:59:17;31.60;;;0.80;;
3817;SDS011;1924;48.078;11.516;2023-05-10T05:01:43;31.40;;;0.80;;
3817;SDS011;1924;48.078;11.516;2023-05-10T05:04:10;31.40;;;0.80;;
3817;SDS011;1924;48.078;11.516;2023-05-10T05:06:37;31.40;;;0.80;;
3817;SDS011;1924;48.078;11.516;2023-05-10T05:09:05;31.37;;;0.80;;
3817;SDS011;1924;48.078;11.516;2023-05-10T05:11:32;31.37;;;0.80;;
3817;SDS011;1924;48.078;11.516;2023-05-10T05:13:58;31.27;;;0.80;;
3817;SDS011;1924;48.078;11.516;2023-05-10T05:16:25;31.27;;;0.80;;
3817;SDS011;1924;48.078;11.516;2023-05-10T05:18:52;31.30;;;0.80;;
3817;SDS011;1924;48.078;11.516;2023-05-10T05:21:19;31.20;;;0.80;;
3817;SDS011;1924;48.078;11.516;2023-05-10T05:23:47;31.20;;;0.80;;
3817;SDS011;1924;48.078;11.516;2023-05-10T05:26:15;31.10;;;0.80;;
3817;SDS011;1924;48.078;11.516;2023-05-10T05:28:41;31.20;;;0.80;;
3817;SDS011;1924;48.078;11.516;2023-05-10T05:31:08;31.30;;;0.80;;
3817;SDS011;1924;48.078;11.516;2023-05-10T05:33:35;31.10;;;0.80;;
3817;SDS011;1924;48.078;11.516;2023-05-10T05:36:02;31.40;;;0.80;;
3817;SDS011;1924;48.078;11.516;2023-05-10T05:38:30;31.30;;;0.80;;
3817;SDS011;1924;48.078;11.516;2023-05-10T05:40:56;31.23;;;0.80;;
3817;SDS011;1924;48.078;11.516;2023-05-10T05:43:25;31.40;;;0.80;;
3817;SDS011;1924;48.078;11.516;2023-05-10T05:45:52;31.27;;;0.80;;
3817;SDS011;1924;48.078;11.516;2023-05-10T05:48:19;31.33;;;0.80;;
3817;SDS011;1924;48.078;11.516;2023-05-10T05:50:45;31.50;;;0.80;;
3817;SDS011;1924;48.078;11.516;2023-05-10T05:53:12;31.33;;;0.80;;
3817;SDS011;1924;48.078;11.516;2023-05-10T05:55:39;31.50;;;0.80;;
3817;SDS011;1924;48.078;11.516;2023-05-10T05:58:06;31.17;;;0.80;;
3817;SDS011;1924;48.078;11.516;2023-05-10T06:00:34;31.30;;;0.80;;
3817;SDS011;1924;48.078;11.516;2023-05-10T06:03:01;31.30;;;0.80;;
3817;SDS011;1924;48.078;11.516;2023-05-10T06:05:28;31.20;;;0.80;;
3817;SDS011;1924;48.078;11.516;2023-05-10T06:07:54;31.30;;;0.80;;
3817;SDS011;1924;48.078;11.516;2023-05-10T06:10:22;31.30;;;0.80;;
3817;SDS011;1924;48.078;11.516;2023-05-10T06:12:50;31.30;;;0.80;;
3817;SDS011;1924;48.078;11.516;2023-05-10T06:15:17;31.30;;;0.80;;
3817;SDS011;1924;48.078;11.516;2023-05-10T06:17:46;30.90;;;0.80;;
3817;SDS011;1924;48.078;11.516;2023-05-10T06:20:14;31.20;;;0.80;;
3817;SDS011;1924;48.078;11.516;2023-05-10T06:22:41;31.00;;;0.80;;
3817;SDS011;1924;48.078;11.516;2023-05-10T06:25:08;31.03;;;0.80;;
3817;SDS011;1924;48.078;11.516;2023-05-10T06:27:36;31.20;;;0.80;;
3817;SDS011;1924;48.078;11.516;2023-05-10T06:30:03;31.00;;;0.80;;
3817;SDS011;1924;48.078;11.516;2023-05-10T06:32:31;31.20;;;0.80;;
3817;SDS011;1924;48.078;11.516;2023-05-10T06:34:59;31.20;;;0.80;;
3817;SDS011;1924;48.078;11.516;2023-05-10T06:37:26;31.13;;;0.80;;
3817;SDS011;1924;48.078;11.516;2023-05-10T06:39:52;31.20;;;0.80;;
3817;SDS011;1924;48.078;11.516;2023-05-10T06:42:19;30.90;;;0.80;;
3817;SDS011;1924;48.078;11.516;2023-05-10T06:44:46;31.00;;;0.80;;
3817;SDS011;1924;48.078;11.516;2023-05-10T06:47:13;31.00;;;0.80;;
3817;SDS011;1924;48.078;11.516;2023-05-10T06:49:39;31.10;;;0.80;;
3817;SDS011;1924;48.078;11.516;2023-05-10T06:52:07;30.97;;;0.80;;
3817;SDS011;1924;48.078;11.516;2023-05-10T06:54:34;30.97;;;0.80;;
3817;SDS011;1924;48.078;11.516;2023-05-10T06:57:01;31.20;;;0.80;;
3817;SDS011;1924;48.078;11.516;2023-05-10T06:59:28;31.00;;;0.80;;
3817;SDS011;1924;48.078;11.516;2023-05-10T07:01:55;31.00;;;0.80;;
3817;SDS011;1924;48.078;11.516;2023-05-10T07:04:22;31.10;;;0.80;;
3817;SDS011;1924;48.078;11.516;2023-05-10T07:06:49;31.00;;;0.80;;
3817;SDS011;1924;48.078;11.516;2023-05-10T07:09:17;31.20;;;0.80;;
3817;SDS011;1924;48.078;11.516;2023-05-10T07:11:44;31.10;;;0.80;;
3817;SDS011;1924;48.078;11.516;2023-05-10T07:14:11;31.30;;;0.80;;
3817;SDS011;1924;48.078;11.516;2023-05-10T07:16:37;31.10;;;0.80;;
3817;SDS011;1924;48.078;11.516;2023-05-10T07:19:04;31.20;;;0.80;;
3817;SDS011;1924;48.078;11.516;2023-05-10T07:21:31;31.20;;;0.80;;
3817;SDS011;1924;48.078;11.516;2023-05-10T07:23:58;31.37;;;0.80;;
3817;SDS011;1924;48.078;11.516;2023-05-10T07:26:27;31.17;;;0.80;;
3817;SDS011;1924;48.078;11.516;2023-05-10T07:28:54;31.27;;;0.80;;
3817;SDS011;1924;48.078;11.516;2023-05-10T07:31:20;31.17;;;0.80;;
3817;SDS011;1924;48.078;11.516;2023-05-10T07:33:47;31.13;;;0.80;;
3817;SDS011;1924;48.078;11.516;2023-05-10T07:36:14;31.30;;;0.80;;
3817;SDS011;1924;48.078;11.516;2023-05-10T07:38:40;31.00;;;0.80;;
3817;SDS011;1924;48.078;11.516;2023-05-10T07:41:07;31.27;;;0.80;;
3817;SDS011;1924;48.078;11.516;2023-05-10T07:43:35;31.10;;;0.80;;
3817;SDS011;1924;48.078;11.516;2023-05-10T07:46:02;31.07;;;0.80;;
3817;SDS011;1924;48.078;11.516;2023-05-10T07:48:29;31.07;;;0.80;;
3817;SDS011;1924;48.078;11.516;2023-05-10T07:50:56;31.20;;;0.80;;
3817;SDS011;1924;48.078;11.516;2023-05-10T07:53:23;31.27;;;0.80;;
3817;SDS011;1924;48.078;11.516;2023-05-10T07:55:51;31.30;;;0.80;;
3817;SDS011;1924;48.078;11.516;2023-05-10T07:58:19;31.10;;;0.80;;
3817;SDS011;1924;48.078;11.516;2023-05-10T08:00:47;31.17;;;0.77;;
3817;SDS011;1924;48.078;11.516;2023-05-10T08:03:14;31.30;;;0.80;;
3817;SDS011;1924;48.078;11.516;2023-05-10T08:05:41;31.07;;;0.80;;
3817;SDS011;1924;48.078;11.516;2023-05-10T08:08:08;31.20;;;0.80;;
3817;SDS011;1924;48.078;11.516;2023-05-10T08:10:35;31.20;;;0.80;;
3817;SDS011;1924;48.078;11.516;2023-05-10T08:13:01;31.30;;;0.80;;
3817;SDS011;1924;48.078;11.516;2023-05-10T08:15:28;31.10;;;0.80;;
3817;SDS011;1924;48.078;11.516;2023-05-10T08:17:56;31.30;;;0.80;;
3817;SDS011;1924;48.078;11.516;2023-05-10T08:20:23;31.30;;;0.80;;
3817;SDS011;1924;48.078;11.516;2023-05-10T08:22:49;31.03;;;0.80;;
3817;SDS011;1924;48.078;11.516;2023-05-10T08:25:16;30.87;;;0.80;;
3817;SDS011;1924;48.078;11.516;2023-05-10T08:27:43;31.20;;;0.80;;
3817;SDS011;1924;48.078;11.516;2023-05-10T08:30:10;30.97;;;0.80;;
3817;SDS011;1924;48.078;11.516;2023-05-10T08:32:38;31.07;;;0.80;;
3817;SDS011;1924;48.078;11.516;2023-05-10T08:35:06;31.20;;;0.80;;
3817;SDS011;1924;48.078;11.516;2023-05-10T08:37:33;31.30;;;0.80;;
3817;SDS011;1924;48.078;11.516;2023-05-10T08:40:00;31.20;;;0.80;;
3817;SDS011;1924;48.078;11.516;2023-05-10T08:42:28;31.07;;;0.80;;
3817;SDS011;1924;48.078;11.516;2023-05-10T08:44:57;31.17;;;0.73;;
3817;SDS011;1924;48.078;11.516;2023-05-10T08:47:25;31.30;;;0.80;;
3817;SDS011;1924;48.078;11.516;2023-05-10T08:49:52;31.17;;;0.80;;
3817;SDS011;1924;48.078;11.516;2023-05-10T08:52:22;31.17;;;0.80;;
3817;SDS011;1924;48.078;11.516;2023-05-10T08:54:54;31.10;;;0.80;;
3817;SDS011;1924;48.078;11.516;2023-05-10T08:57:21;31.20;;;0.80;;
3817;SDS011;1924;48.078;11.516;2023-05-10T08:59:48;30.90;;;0.73;;
3817;SDS011;1924;48.078;11.516;2023-05-10T09:02:14;31.00;;;0.80;;
3817;SDS011;1924;48.078;11.516;2023-05-10T09:04:43;30.90;;;0.80;;
3817;SDS011;1924;48.078;11.516;2023-05-10T09:07:10;30.97;;;0.80;;
3817;SDS011;1924;48.078;11.516;2023-05-10T09:09:39;30.80;;;0.70;;
3817;SDS011;1924;48.078;11.516;2023-05-10T09:12:06;31.00;;;0.80;;
3817;SDS011;1924;48.078;11.516;2023-05-10T09:14:36;30.63;;;0.80;;
3817;SDS011;1924;48.078;11.516;2023-05-10T09:17:04;30.70;;;0.80;;
3817;SDS011;1924;48.078;11.516;2023-05-10T09:19:32;30.90;;;0.80;;
3817;SDS011;1924;48.078;11.516;2023-05-10T09:21:59;30.90;;;0.80;;
3817;SDS011;1924;48.078;11.516;2023-05-10T09:24:29;30.67;;;0.80;;
3817;SDS011;1924;48.078;11.516;2023-05-10T09:26:57;30.80;;;0.70;;
3817;SDS011;1924;48.078;11.516;2023-05-10T09:29:25;30.87;;;0.73;;
3817;SDS011;1924;48.078;11.516;2023-05-10T09:31:52;30.80;;;0.80;;
3817;SDS011;1924;48.078;11.516;2023-05-10T09:34:21;30.70;;;0.80;;
3817;SDS011;1924;48.078;11.516;2023-05-10T09:36:55;30.70;;;0.80;;
3817;SDS011;1924;48.078;11.516;2023-05-10T09:39:32;30.53;;;0.80;;
3817;SDS011;1924;48.078;11.516;2023-05-10T09:42:02;30.80;;;0.73;;
3817;SDS011;1924;48.078;11.516;2023-05-10T09:44:30;30.63;;;0.80;;
3817;SDS011;1924;48.078;11.516;2023-05-10T09:46:57;30.70;;;0.80;;
3817;SDS011;1924;48.078;11.516;2023-05-10T09:49:24;30.47;;;0.80;;
3817;SDS011;1924;48.078;11.516;2023-05-10T09:51:59;30.70;;;0.80;;
3817;SDS011;1924;48.078;11.516;2023-05-10T09:54:28;30.60;;;0.80;;
3817;SDS011;1924;48.078;11.516;2023-05-10T09:56:55;30.43;;;0.80;;
3817;SDS011;1924;48.078;11.516;2023-05-10T09:59:25;30.60;;;0.80;;
3817;SDS011;1924;48.078;11.516;2023-05-10T10:01:52;30.60;;;0.77;;
3817;SDS011;1924;48.078;11.516;2023-05-10T10:04:21;30.50;;;0.80;;
3817;SDS011;1924;48.078;11.516;2023-05-10T10:06:57;30.50;;;0.80;;
3817;SDS011;1924;48.078;11.516;2023-05-10T10:09:25;30.60;;;0.77;;
3817;SDS011;1924;48.078;11.516;2023-05-10T10:11:53;30.60;;;0.80;;
3817;SDS011;1924;48.078;11.516;2023-05-10T10:14:21;30.40;;;0.70;;
3817;SDS011;1924;48.078;11.516;2023-05-10T10:16:50;30.40;;;0.80;;
3817;SDS011;1924;48.078;11.516;2023-05-10T10:19:18;30.20;;;0.80;;
3817;SDS011;1924;48.078;11.516;2023-05-10T10:21:46;30.30;;;0.80;;
3817;SDS011;1924;48.078;11.516;2023-05-10T10:24:13;30.20;;;0.80;;
3817;SDS011;1924;48.078;11.516;2023-05-10T10:26:40;30.27;;;0.80;;
3817;SDS011;1924;48.078;11.516;2023-05-10T10:29:12;30.20;;;0.80;;
3817;SDS011;1924;48.078;11.516;2023-05-10T10:31:48;30.27;;;0.73;;
3817;SDS011;1924;48.078;11.516;2023-05-10T10:34:28;30.50;;;0.70;;
3817;SDS011;1924;48.078;11.516;2023-05-10T10:36:57;30.37;;;0.80;;
3817;SDS011;1924;48.078;11.516;2023-05-10T10:39:30;30.37;;;0.80;;
3817;SDS011;1924;48.078;11.516;2023-05-10T10:41:58;30.50;;;0.80;;
3817;SDS011;1924;48.078;11.516;2023-05-10T10:44:25;30.40;;;0.70;;
3817;SDS011;1924;48.078;11.516;2023-05-10T10:47:10;30.20;;;0.80;;
3817;SDS011;1924;48.078;11.516;2023-05-10T10:50:04;30.37;;;0.80;;
3817;SDS011;1924;48.078;11.516;2023-05-10T10:52:32;30.17;;;0.80;;
3817;SDS011;1924;48.078;11.516;2023-05-10T10:55:02;30.00;;;0.77;;
3817;SDS011;1924;48.078;11.516;2023-05-10T10:57:32;30.17;;;0.80;;
3817;SDS011;1924;48.078;11.516;2023-05-10T11:00:18;29.97;;;0.80;;
3817;SDS011;1924;48.078;11.516;2023-05-10T11:02:51;29.93;;;0.80;;
3817;SDS011;1924;48.078;11.516;2023-05-10T11:05:26;29.90;;;0.80;;
3817;SDS011;1924;48.078;11.516;2023-05-10T11:08:08;29.90;;;0.80;;
3817;SDS011;1924;48.078;11.516;2023-05-10T11:10:54;29.87;;;0.80;;
3817;SDS011;1924;48.078;11.516;2023-05-10T11:13:29;29.77;;;0.80;;
3817;SDS011;1924;48.078;11.516;2023-05-10T11:15:59;29.83;;;0.80;;
3817;SDS011;1924;48.078;11.516;2023-05-10T11:18:41;29.93;;;0.70;;
3817;SDS011;1924;48.078;11.516;2023-05-10T11:21:19;30.10;;;0.80;;
3817;SDS011;1924;48.078;11.516;2023-05-10T11:23:50;30.00;;;0.80;;
3817;SDS011;1924;48.078;11.516;2023-05-10T11:26:23;30.00;;;0.80;;
3817;SDS011;1924;48.078;11.516;2023-05-10T11:28:51;30.20;;;0.80;;
3817;SDS011;1924;48.078;11.516;2023-05-10T11:31:22;30.10;;;0.80;;
3817;SDS011;1924;48.078;11.516;2023-05-10T11:33:53;30.20;;;0.80;;
3817;SDS011;1924;48.078;11.516;2023-05-10T11:36:24;30.40;;;0.80;;
3817;SDS011;1924;48.078;11.516;2023-05-10T11:38:52;30.60;;;0.80;;
3817;SDS011;1924;48.078;11.516;2023-05-10T11:41:23;30.70;;;0.80;;
3817;SDS011;1924;48.078;11.516;2023-05-10T11:43:52;30.57;;;0.80;;
3817;SDS011;1924;48.078;11.516;2023-05-10T11:46:21;30.70;;;0.80;;
3817;SDS011;1924;48.078;11.516;2023-05-10T11:48:49;30.67;;;0.80;;
3817;SDS011;1924;48.078;11.516;2023-05-10T11:51:22;30.70;;;0.80;;
3817;SDS011;1924;48.078;11.516;2023-05-10T11:53:52;30.77;;;0.80;;
3817;SDS011;1924;48.078;11.516;2023-05-10T11:56:22;30.97;;;0.80;;
3817;SDS011;1924;48.078;11.516;2023-05-10T11:58:52;30.90;;;0.80;;
3817;SDS011;1924;48.078;11.516;2023-05-10T12:01:22;30.90;;;0.80;;
3817;SDS011;1924;48.078;11.516;2023-05-10T12:03:49;31.00;;;0.80;;
3817;SDS011;1924;48.078;11.516;2023-05-10T12:06:21;30.70;;;0.80;;
3817;SDS011;1924;48.078;11.516;2023-05-10T12:08:53;30.83;;;0.80;;
3817;SDS011;1924;48.078;11.516;2023-05-10T12:11:23;30.67;;;0.80;;
3817;SDS011;1924;48.078;11.516;2023-05-10T12:13:52;30.80;;;0.80;;
3817;SDS011;1924;48.078;11.516;2023-05-10T12:16:22;30.90;;;0.80;;
3817;SDS011;1924;48.078;11.516;2023-05-10T12:18:51;31.00;;;0.80;;
3817;SDS011;1924;48.078;11.516;2023-05-10T12:21:21;30.90;;;0.80;;
3817;SDS011;1924;48.078;11.516;2023-05-10T12:23:49;30.67;;;0.80;;
3817;SDS011;1924;48.078;11.516;2023-05-10T12:26:17;30.87;;;0.80;;
3817;SDS011;1924;48.078;11.516;2023-05-10T12:28:44;30.90;;;0.80;;
3817;SDS011;1924;48.078;11.516;2023-05-10T12:31:11;30.77;;;0.80;;
3817;SDS011;1924;48.078;11.516;2023-05-10T12:33:38;30.90;;;0.80;;
3817;SDS011;1924;48.078;11.516;2023-05-10T12:36:07;30.77;;;0.80;;
3817;SDS011;1924;48.078;11.516;2023-05-10T12:38:37;30.80;;;0.80;;
3817;SDS011;1924;48.078;11.516;2023-05-10T12:41:05;30.70;;;0.80;;
3817;SDS011;1924;48.078;11.516;2023-05-10T12:43:33;30.70;;;0.80;;
3817;SDS011;1924;48.078;11.516;2023-05-10T12:46:04;30.90;;;0.80;;
3817;SDS011;1924;48.078;11.516;2023-05-10T12:48:32;30.70;;;0.80;;
3817;SDS011;1924;48.078;11.516;2023-05-10T12:50:59;30.90;;;0.80;;
3817;SDS011;1924;48.078;11.516;2023-05-10T12:53:26;30.80;;;0.80;;
3817;SDS011;1924;48.078;11.516;2023-05-10T12:55:54;30.90;;;0.80;;
3817;SDS011;1924;48.078;11.516;2023-05-10T12:58:21;30.90;;;0.80;;
3817;SDS011;1924;48.078;11.516;2023-05-10T13:00:48;30.70;;;0.80;;
3817;SDS011;1924;48.078;11.516;2023-05-10T13:03:16;30.70;;;0.80;;
3817;SDS011;1924;48.078;11.516;2023-05-10T13:05:43;30.60;;;0.80;;
3817;SDS011;1924;48.078;11.516;2023-05-10T13:08:10;30.90;;;0.80;;
3817;SDS011;1924;48.078;11.516;2023-05-10T13:10:37;30.80;;;0.80;;
3817;SDS011;1924;48.078;11.516;2023-05-10T13:13:05;30.70;;;0.80;;
3817;SDS011;1924;48.078;11.516;2023-05-10T13:15:32;30.67;;;0.80;;
3817;SDS011;1924;48.078;11.516;2023-05-10T13:17:59;30.80;;;0.80;;
3817;SDS011;1924;48.078;11.516;2023-05-10T13:20:26;30.90;;;0.80;;
3817;SDS011;1924;48.078;11.516;2023-05-10T13:22:53;30.80;;;0.80;;
3817;SDS011;1924;48.078;11.516;2023-05-10T13:25:20;30.77;;;0.80;;
3817;SDS011;1924;48.078;11.516;2023-05-10T13:27:46;30.90;;;0.80;;
3817;SDS011;1924;48.078;11.516;2023-05-10T13:30:14;30.80;;;0.80;;
3817;SDS011;1924;48.078;11.516;2023-05-10T13:32:41;30.87;;;0.80;;
3817;SDS011;1924;48.078;11.516;2023-05-10T13:35:08;30.77;;;0.80;;
3817;SDS011;1924;48.078;11.516;2023-05-10T13:37:35;30.90;;;0.80;;
3817;SDS011;1924;48.078;11.516;2023-05-10T13:40:02;30.67;;;0.80;;
3817;SDS011;1924;48.078;11.516;2023-05-10T13:42:30;30.90;;;0.80;;
3817;SDS011;1924;48.078;11.516;2023-05-10T13:44:58;30.90;;;0.80;;
3817;SDS011;1924;48.078;11.516;2023-05-10T13:47:26;30.80;;;0.73;;
3817;SDS011;1924;48.078;11.516;2023-05-10T13:49:53;30.90;;;0.80;;
3817;SDS011;1924;48.078;11.516;2023-05-10T13:52:21;30.77;;;0.80;;
3817;SDS011;1924;48.078;11.516;2023-05-10T13:54:47;30.70;;;0.80;;
3817;SDS011;1924;48.078;11.516;2023-05-10T13:57:15;30.70;;;0.80;;
3817;SDS011;1924;48.078;11.516;2023-05-10T13:59:42;30.90;;;0.80;;
3817;SDS011;1924;48.078;11.516;2023-05-10T14:02:09;30.63;;;0.80;;
3817;SDS011;1924;48.078;11.516;2023-05-10T14:04:39;30.80;;;0.80;;
3817;SDS011;1924;48.078;11.516;2023-05-10T14:07:06;30.73;;;0.80;;
3817;SDS011;1924;48.078;11.516;2023-05-10T14:09:32;30.70;;;0.80;;
3817;SDS011;1924;48.078;11.516;2023-05-10T14:11:59;30.60;;;0.80;;
3817;SDS011;1924;48.078;11.516;2023-05-10T14:14:27;30.80;;;0.80;;
3817;SDS011;1924;48.078;11.516;2023-05-10T14:16:54;30.70;;;0.80;;
3817;SDS011;1924;48.078;11.516;2023-05-10T14:19:21;30.70;;;0.80;;
3817;SDS011;1924;48.078;11.516;2023-05-10T14:21:49;30.70;;;0.80;;
3817;SDS011;1924;48.078;11.516;2023-05-10T14:24:16;30.70;;;0.80;;
3817;SDS011;1924;48.078;11.516;2023-05-10T14:26:43;30.67;;;0.80;;
3817;SDS011;1924;48.078;11.516;2023-05-10T14:29:10;30.70;;;0.80;;
3817;SDS011;1924;48.078;11.516;2023-05-10T14:31:37;30.43;;;0.80;;
3817;SDS011;1924;48.078;11.516;2023-05-10T14:34:04;30.67;;;0.80;;
3817;SDS011;1924;48.078;11.516;2023-05-10T14:36:31;30.80;;;0.80;;
3817;SDS011;1924;48.078;11.516;2023-05-10T14:39:00;30.50;;;0.80;;
3817;SDS011;1924;48.078;11.516;2023-05-10T14:41:27;30.70;;;0.77;;
3817;SDS011;1924;48.078;11.516;2023-05-10T14:43:55;30.90;;;0.80;;
3817;SDS011;1924;48.078;11.516;2023-05-10T14:46:22;30.90;;;0.80;;
3817;SDS011;1924;48.078;11.516;2023-05-10T14:48:48;30.80;;;0.80;;
3817;SDS011;1924;48.078;11.516;2023-05-10T14:51:15;30.90;;;0.80;;
3817;SDS011;1924;48.078;11.516;2023-05-10T14:53:43;30.70;;;0.80;;
3817;SDS011;1924;48.078;11.516;2023-05-10T14:56:11;30.83;;;0.80;;
3817;SDS011;1924;48.078;11.516;2023-05-10T14:58:38;30.90;;;0.80;;
3817;SDS011;1924;48.078;11.516;2023-05-10T15:01:05;30.80;;;0.80;;
3817;SDS011;1924;48.078;11.516;2023-05-10T15:03:32;31.00;;;0.80;;
3817;SDS011;1924;48.078;11.516;2023-05-10T15:05:59;30.67;;;0.80;;
3817;SDS011;1924;48.078;11.516;2023-05-10T15:08:25;30.60;;;0.80;;
3817;SDS011;1924;48.078;11.516;2023-05-10T15:10:52;30.80;;;0.80;;
3817;SDS011;1924;48.078;11.516;2023-05-10T15:13:22;30.73;;;0.80;;
3817;SDS011;1924;48.078;11.516;2023-05-10T15:15:48;30.67;;;0.80;;
3817;SDS011;1924;48.078;11.516;2023-05-10T15:18:15;30.80;;;0.80;;
3817;SDS011;1924;48.078;11.516;2023-05-10T15:20:42;30.83;;;0.80;;
3817;SDS011;1924;48.078;11.516;2023-05-10T15:23:09;31.00;;;0.80;;
3817;SDS011;1924;48.078;11.516;2023-05-10T15:25:35;30.80;;;0.80;;
3817;SDS011;1924;48.078;11.516;2023-05-10T15:28:03;30.90;;;0.80;;
3817;SDS011;1924;48.078;11.516;2023-05-10T15:30:31;31.00;;;0.80;;
3817;SDS011;1924;48.078;11.516;2023-05-10T15:32:58;30.87;;;0.80;;
3817;SDS011;1924;48.078;11.516;2023-05-10T15:35:25;30.87;;;0.80;;
3817;SDS011;1924;48.078;11.516;2023-05-10T15:37:52;31.07;;;0.80;;
3817;SDS011;1924;48.078;11.516;2023-05-10T15:40:19;30.80;;;0.80;;
3817;SDS011;1924;48.078;11.516;2023-05-10T15:42:45;31.10;;;0.80;;
3817;SDS011;1924;48.078;11.516;2023-05-10T15:45:13;31.07;;;0.80;;
3817;SDS011;1924;48.078;11.516;2023-05-10T15:47:42;30.90;;;0.80;;
3817;SDS011;1924;48.078;11.516;2023-05-10T15:50:09;31.00;;;0.80;;
3817;SDS011;1924;48.078;11.516;2023-05-10T15:52:37;30.97;;;0.80;;
3817;SDS011;1924;48.078;11.516;2023-05-10T15:55:04;30.77;;;0.80;;
3817;SDS011;1924;48.078;11.516;2023-05-10T15:57:36;30.90;;;0.80;;
3817;SDS011;1924;48.078;11.516;2023-05-10T16:00:04;31.10;;;0.80;;
3817;SDS011;1924;48.078;11.516;2023-05-10T16:02:31;30.90;;;0.80;;
3817;SDS011;1924;48.078;11.516;2023-05-10T16:05:00;31.10;;;0.80;;
3817;SDS011;1924;48.078;11.516;2023-05-10T16:07:26;31.00;;;0.80;;
3817;SDS011;1924;48.078;11.516;2023-05-10T16:09:53;31.00;;;0.80;;
3817;SDS011;1924;48.078;11.516;2023-05-10T16:12:20;30.80;;;0.80;;
3817;SDS011;1924;48.078;11.516;2023-05-10T16:14:47;31.00;;;0.80;;
3817;SDS011;1924;48.078;11.516;2023-05-10T16:17:14;31.10;;;0.80;;